الصفحة الرئيسية
METAR-TAF:

METAR-TAF

مطار :

Roi Et, تايلاند

دائرة عرض: 16-07-00N, خط طول: 103-46-26E, ارتفاع: 138 متر

مراقبة الطقس الحالي

تاريخ ووقت الإصدار 8ساعات و 8 دقيقة قبل الساعة 14:00UTC
ريح 6 عقدة من الجنوب/الجنوب الغربي
درجة الحرارة 25°درجة مئوية
الرطوبة 94%
ضغط 1005 hPa
الرؤية 10 كم أو أكثر
غيوم متفرقة على ارتفاع 2000 قدم
غيوم مفككة على ارتفاع 10000 قدم

METAR: VTUV 251400Z 21006KT 9999 SCT020 BKN100 25/24 Q1005 NOSIG

زمن: 05:08 (22:08 UTC)

توقعات

تاريخ ووقت الإصدار 5ساعات و 8 دقيقة قبل الساعة 17:00UTC
التوقعات صالحة من25 الساعة 18 UTC إلى 26 الساعة 18 UTC
ريح 8 عقدة من الجنوب/الجنوب الغربي
الرؤية: 9000 متر
غيوم متفرقة على ارتفاع 2500 قدم

TAF: VTUV 251700Z 2518/2618 20008KT 9000 SCT025

أرصاد الطقس والتوقعات من أكثر من 4000 مطار (تقارير الطقس للمطار METAR والتنبؤ بالطقس بالمطارTAF).

المحطات المتاحة هي النقط الصفراء والحمراء على الخريطة.

حرك المؤشر فوق النقطة لمعرفة اسم المحطة.

ثم انقر لمعرفة أرصاد وتوقعات الطقس.

لتغيير الخارطة: اضغط على الأزرار الخضراء مع رمز الصليب الأسود للتكبير. على الزر الأخضر مع شرطة للتصغير، أو على الأسهم الخضراء للخرائط المجاورة.


METAR-TAF: